createdAt,value
2019-03-21T00:04:21.977Z,10.63
2019-03-21T00:19:11.370Z,11.20
2019-03-21T00:21:45.611Z,12.60
2019-03-21T00:24:16.264Z,11.20
2019-03-21T00:26:46.757Z,14.60
2019-03-21T00:29:17.686Z,10.07
2019-03-21T00:31:49.043Z,10.70
2019-03-21T00:34:19.881Z,17.13
2019-03-21T00:36:55.915Z,11.20
2019-03-21T00:39:32.732Z,12.07
2019-03-21T00:42:08.673Z,12.93
2019-03-21T00:51:02.124Z,12.97
2019-03-21T00:53:33.286Z,12.33
2019-03-21T00:56:11.473Z,18.10
2019-03-21T00:58:47.536Z,9.70
2019-03-21T01:01:18.248Z,12.27
2019-03-21T01:03:52.983Z,12.23
2019-03-21T01:06:24.843Z,17.27
2019-03-21T01:08:55.410Z,16.07
2019-03-21T01:11:27.040Z,13.40
2019-03-21T01:13:57.466Z,11.87
2019-03-21T01:16:45.303Z,15.43
2019-03-21T01:19:19.466Z,19.33
2019-03-21T01:21:49.374Z,14.00
2019-03-21T01:24:23.075Z,11.80
2019-03-21T01:26:53.556Z,10.90
2019-03-21T01:29:24.508Z,15.00
2019-03-21T01:31:54.866Z,14.43
2019-03-21T01:34:26.349Z,12.20
2019-03-21T01:36:56.809Z,13.90
2019-03-21T01:39:27.309Z,10.83
2019-03-21T01:41:59.116Z,11.67
2019-03-21T01:44:40.303Z,15.57
2019-03-21T01:47:01.942Z,14.20
2019-03-21T01:49:32.881Z,15.80
2019-03-21T01:52:03.132Z,10.00
2019-03-21T01:54:33.427Z,10.93
2019-03-21T01:57:04.336Z,9.30
2019-03-21T01:59:40.573Z,12.20
2019-03-21T02:02:11.079Z,10.37
2019-03-21T02:04:42.194Z,13.37
2019-03-21T02:07:12.319Z,10.43
2019-03-21T02:09:43.313Z,17.13
2019-03-21T02:12:14.099Z,12.17
2019-03-21T02:14:52.043Z,12.57
2019-03-21T02:17:19.799Z,11.03
2019-03-21T02:19:49.984Z,11.03
2019-03-21T02:22:22.423Z,12.73
2019-03-21T02:24:52.841Z,11.30
2019-03-21T02:27:26.421Z,7.97
2019-03-21T02:29:56.953Z,11.20
2019-03-21T02:32:27.837Z,12.60
2019-03-21T02:34:58.540Z,10.10
2019-03-21T02:37:29.199Z,12.00
2019-03-21T02:40:00.450Z,11.97
2019-03-21T02:42:31.062Z,9.57
2019-03-21T02:45:08.943Z,10.00
2019-03-21T02:47:36.135Z,12.67
2019-03-21T02:50:08.368Z,11.10
2019-03-21T02:52:39.061Z,11.30
2019-03-21T02:55:10.082Z,9.73
2019-03-21T02:57:40.740Z,9.00
2019-03-21T03:00:15.370Z,11.10
2019-03-21T03:02:47.220Z,10.60
2019-03-21T03:07:57.120Z,14.20
2019-03-21T03:10:37.444Z,9.93
2019-03-21T03:13:07.562Z,9.70
2019-03-21T03:15:38.175Z,9.83
2019-03-21T03:18:10.552Z,11.40
2019-03-21T03:20:40.461Z,8.80
2019-03-21T03:23:11.153Z,12.50
2019-03-21T03:25:42.411Z,11.73
2019-03-21T03:28:15.040Z,10.20
2019-03-21T03:30:45.296Z,10.27
2019-03-21T03:33:15.884Z,11.13
2019-03-21T03:35:47.058Z,12.03
2019-03-21T03:38:18.514Z,12.93
2019-03-21T03:40:51.978Z,11.23
2019-03-21T03:43:22.253Z,17.13
2019-03-21T03:45:52.285Z,14.47
2019-03-21T03:48:22.951Z,12.40
2019-03-21T03:50:57.269Z,12.23
2019-03-21T03:53:29.646Z,11.40
2019-03-21T03:56:00.445Z,12.17
2019-03-21T03:58:30.830Z,12.37
2019-03-21T04:01:01.074Z,13.97
2019-03-21T04:03:32.563Z,10.80
2019-03-21T04:06:02.706Z,10.50
2019-03-21T04:08:33.894Z,10.90
2019-03-21T04:11:05.577Z,15.10
2019-03-21T04:13:36.308Z,14.13
2019-03-21T04:16:06.803Z,14.50
2019-03-21T04:18:37.144Z,10.60
2019-03-21T04:21:07.442Z,11.77
2019-03-21T04:23:37.538Z,11.20
2019-03-21T04:26:17.309Z,11.63
2019-03-21T04:28:47.639Z,11.67
2019-03-21T04:31:18.031Z,11.40
2019-03-21T04:33:48.814Z,13.80
2019-03-21T04:36:19.945Z,10.17
2019-03-21T04:38:51.226Z,13.13
2019-03-21T04:41:23.050Z,10.27
2019-03-21T04:43:53.245Z,9.87
2019-03-21T04:46:23.880Z,16.50
2019-03-21T04:48:54.553Z,15.13
2019-03-21T04:51:28.306Z,12.30
2019-03-21T04:53:58.493Z,13.50
2019-03-21T04:56:29.050Z,10.70
2019-03-21T04:58:59.808Z,16.47
2019-03-21T05:01:31.140Z,17.17
2019-03-21T05:04:02.161Z,12.50
2019-03-21T05:06:33.079Z,14.03
2019-03-21T05:09:13.344Z,11.90
2019-03-21T05:19:36.322Z,14.03
2019-03-21T05:22:06.669Z,12.27
2019-03-21T05:24:40.058Z,11.13
2019-03-21T05:27:12.556Z,12.10
2019-03-21T05:29:42.794Z,13.50
2019-03-21T05:32:14.726Z,10.37
2019-03-21T05:34:44.917Z,18.30
2019-03-21T05:37:15.313Z,17.80
2019-03-21T05:39:45.445Z,15.80
2019-03-21T05:42:20.275Z,17.07
2019-03-21T05:44:50.597Z,14.43
2019-03-21T05:47:20.714Z,16.93
2019-03-21T05:49:51.647Z,17.60
2019-03-21T05:52:22.721Z,15.57
2019-03-21T05:54:53.187Z,16.83
2019-03-21T06:00:17.120Z,11.40
2019-03-21T06:02:48.023Z,13.67
2019-03-21T06:16:12.596Z,10.10
2019-03-21T06:19:09.161Z,16.13
2019-03-21T06:22:23.304Z,13.80
2019-03-21T06:25:18.123Z,14.00
2019-03-21T06:27:49.738Z,22.00
2019-03-21T06:30:22.750Z,19.20
2019-03-21T06:32:53.424Z,12.63
2019-03-21T06:35:24.687Z,19.37
2019-03-21T06:37:59.272Z,12.80
2019-03-21T06:40:29.718Z,16.53
2019-03-21T06:43:00.480Z,16.33
2019-03-21T06:50:57.921Z,14.33
2019-03-21T06:53:56.735Z,14.20
2019-03-21T06:56:25.463Z,19.10
2019-03-21T06:58:56.508Z,15.80
2019-03-21T07:01:27.279Z,16.70
2019-03-21T07:04:07.317Z,15.97
2019-03-21T07:06:49.441Z,12.87
2019-03-21T07:20:02.795Z,13.47
2019-03-21T07:22:38.378Z,16.10
2019-03-21T07:25:13.692Z,17.73
2019-03-21T07:27:47.483Z,12.50
2019-03-21T07:30:19.138Z,21.97
2019-03-21T07:32:49.664Z,12.87
2019-03-21T07:35:27.818Z,13.73
2019-03-21T07:37:58.624Z,11.73
2019-03-21T07:40:29.584Z,16.10
2019-03-21T07:43:02.485Z,14.43
2019-03-21T07:45:32.984Z,15.23
2019-03-21T07:48:05.246Z,13.00
2019-03-21T07:50:35.584Z,10.90
2019-03-21T07:53:10.751Z,15.00
2019-03-21T07:55:41.279Z,14.90
2019-03-21T07:58:11.836Z,18.73
2019-03-21T08:00:50.856Z,19.40
2019-03-21T08:04:04.671Z,13.57
2019-03-21T08:18:31.461Z,15.80
2019-03-21T08:27:35.433Z,10.60
2019-03-21T08:36:30.156Z,9.83
2019-03-21T08:39:16.836Z,11.93
2019-03-21T08:50:37.209Z,8.87
2019-03-21T08:59:15.221Z,11.50
2019-03-21T09:02:15.424Z,8.37
2019-03-21T09:13:05.646Z,8.30
2019-03-21T09:20:58.290Z,9.57
2019-03-21T09:32:41.761Z,13.77
2019-03-21T09:36:36.431Z,10.33
2019-03-21T09:40:14.296Z,12.53
2019-03-21T09:43:09.127Z,16.33
2019-03-21T09:50:10.543Z,8.60
2019-03-21T10:19:00.150Z,13.87
2019-03-21T10:33:03.219Z,19.60
2019-03-21T10:36:08.444Z,13.60
2019-03-21T10:40:10.241Z,10.80
2019-03-21T11:26:21.659Z,10.47
2019-03-21T11:49:23.969Z,8.80
2019-03-21T11:51:58.867Z,11.23
2019-03-21T11:54:30.181Z,10.60
2019-03-21T11:57:00.288Z,11.57
2019-03-21T11:59:46.227Z,14.07
2019-03-21T12:02:03.196Z,11.67
2019-03-21T12:04:34.191Z,11.30
2019-03-21T12:07:04.594Z,15.33
2019-03-21T12:09:35.236Z,12.60
2019-03-21T12:12:06.458Z,10.90
2019-03-21T12:14:37.875Z,15.40
2019-03-21T12:17:09.532Z,11.97
2019-03-21T12:19:40.014Z,11.87
2019-03-21T12:22:30.272Z,9.90
2019-03-21T12:24:59.731Z,14.90
2019-03-21T12:27:29.601Z,13.37
2019-03-21T12:29:59.843Z,15.43
2019-03-21T12:37:36.949Z,13.87
2019-03-21T12:40:06.165Z,11.47
2019-03-21T12:42:41.158Z,12.87
2019-03-21T12:48:03.710Z,11.83
2019-03-21T12:50:35.186Z,13.57
2019-03-21T12:53:05.528Z,15.53
2019-03-21T12:55:36.402Z,14.70
2019-03-21T12:58:07.394Z,11.80
2019-03-21T13:00:44.528Z,11.10
2019-03-21T13:03:14.965Z,11.87
2019-03-21T13:08:33.133Z,9.67
2019-03-21T13:10:54.467Z,13.70
2019-03-21T13:13:25.589Z,11.87
2019-03-21T13:15:55.585Z,12.67
2019-03-21T13:18:25.672Z,14.83
2019-03-21T13:20:56.301Z,11.23
2019-03-21T13:23:26.543Z,8.80
2019-03-21T13:25:57.840Z,9.10
2019-03-21T13:28:28.714Z,10.80
2019-03-21T13:33:39.957Z,9.00
2019-03-21T13:36:10.957Z,9.30
2019-03-21T13:38:41.555Z,11.70
2019-03-21T13:41:18.906Z,12.90
2019-03-21T13:43:49.934Z,14.00
2019-03-21T13:46:20.168Z,17.10
2019-03-21T13:48:52.320Z,9.37
2019-03-21T13:51:24.533Z,12.20
2019-03-21T13:53:55.338Z,8.90
2019-03-21T13:56:25.548Z,11.00
2019-03-21T13:58:55.674Z,10.70
2019-03-21T14:01:25.858Z,10.80
2019-03-21T14:03:56.319Z,11.13
2019-03-21T14:06:27.352Z,9.10
2019-03-21T14:08:58.288Z,11.30
2019-03-21T14:11:33.047Z,12.00
2019-03-21T14:14:27.596Z,9.97
2019-03-21T14:17:00.119Z,10.77
2019-03-21T14:19:33.299Z,15.23
2019-03-21T14:22:04.440Z,10.97
2019-03-21T14:24:35.381Z,17.73
2019-03-21T14:27:06.504Z,13.47
2019-03-21T14:29:40.053Z,10.10
2019-03-21T14:48:28.819Z,13.77
2019-03-21T14:51:05.619Z,10.50
2019-03-21T14:56:12.397Z,14.53
2019-03-21T14:58:43.368Z,10.90
2019-03-21T15:01:13.799Z,12.50
2019-03-21T15:03:45.323Z,10.47
2019-03-21T15:06:15.883Z,10.30
2019-03-21T15:08:50.822Z,12.30
2019-03-21T15:11:22.422Z,12.27
2019-03-21T15:22:06.918Z,11.80
2019-03-21T15:25:06.582Z,11.33
2019-03-21T15:28:18.049Z,12.10
2019-03-21T15:30:57.464Z,13.67
2019-03-21T15:33:29.792Z,10.17
2019-03-21T15:36:06.359Z,10.03
2019-03-21T15:38:37.473Z,10.93
2019-03-21T15:41:09.464Z,10.80
2019-03-21T15:43:40.357Z,8.73
2019-03-21T15:46:21.385Z,11.53
2019-03-21T15:49:00.789Z,8.80
2019-03-21T15:57:46.816Z,11.40
2019-03-21T16:00:34.943Z,11.60
2019-03-21T16:03:07.153Z,13.13
2019-03-21T16:05:42.199Z,13.80
2019-03-21T16:08:16.059Z,11.20
2019-03-21T16:10:54.695Z,11.33
2019-03-21T16:13:25.632Z,8.43
2019-03-21T16:15:59.579Z,8.73
2019-03-21T16:18:30.780Z,11.30
2019-03-21T16:21:33.035Z,10.67
2019-03-21T16:24:14.047Z,10.23
2019-03-21T16:27:07.564Z,8.00
2019-03-21T16:29:36.317Z,8.40
2019-03-21T16:53:29.182Z,10.20
2019-03-21T16:56:08.625Z,8.37
2019-03-21T17:06:08.324Z,9.40
2019-03-21T17:08:45.235Z,9.07
2019-03-21T17:11:18.427Z,9.17
2019-03-21T17:13:52.028Z,11.50
2019-03-21T17:16:23.447Z,8.23
2019-03-21T17:18:57.559Z,10.00
2019-03-21T17:25:41.279Z,10.00
2019-03-21T17:28:37.479Z,9.53
2019-03-21T17:34:14.159Z,14.10
2019-03-21T17:37:01.883Z,11.40
2019-03-21T17:52:21.606Z,15.03
2019-03-21T17:55:44.489Z,15.70
2019-03-21T17:58:28.627Z,14.90
2019-03-21T18:04:30.566Z,11.73
2019-03-21T18:32:50.615Z,20.00
2019-03-21T18:35:51.730Z,28.37
2019-03-21T19:09:38.214Z,19.47
2019-03-21T19:12:11.880Z,19.47
2019-03-21T19:17:49.805Z,22.00
2019-03-21T19:20:23.406Z,16.87
2019-03-21T19:23:07.929Z,20.83
2019-03-21T19:28:23.996Z,19.17
2019-03-21T19:31:11.490Z,22.00
2019-03-21T19:34:08.691Z,20.30
2019-03-21T19:37:07.801Z,18.00
2019-03-21T19:40:04.777Z,16.70
2019-03-21T19:42:37.900Z,23.57
2019-03-21T19:46:12.816Z,23.53
2019-03-21T19:49:01.857Z,27.40
2019-03-21T19:51:34.011Z,20.17
2019-03-21T19:54:05.834Z,17.33
2019-03-21T19:57:38.019Z,20.60
2019-03-21T20:00:21.321Z,16.57
2019-03-21T20:03:09.014Z,14.33
2019-03-21T20:05:42.179Z,13.90
2019-03-21T20:08:40.999Z,21.10
2019-03-21T20:11:37.520Z,16.90
2019-03-21T20:14:56.089Z,17.00
2019-03-21T20:33:38.429Z,26.13
2019-03-21T20:36:30.602Z,21.77
2019-03-21T20:42:20.678Z,14.50
2019-03-21T21:05:35.042Z,14.67
2019-03-21T21:08:48.128Z,12.13
2019-03-21T21:12:05.126Z,21.83
2019-03-21T21:17:47.459Z,13.87
2019-03-21T21:20:37.769Z,21.63
2019-03-21T21:23:15.502Z,27.30
2019-03-21T21:25:44.764Z,17.80
2019-03-21T21:28:19.708Z,26.63
2019-03-21T21:30:57.366Z,23.30
2019-03-21T21:33:42.086Z,13.27
2019-03-21T21:36:21.788Z,25.57
2019-03-21T21:41:33.303Z,29.43
2019-03-21T21:44:52.857Z,19.33
2019-03-21T21:47:47.465Z,19.97
2019-03-21T21:50:19.999Z,19.23
2019-03-21T21:52:51.149Z,20.90
2019-03-21T21:55:30.249Z,19.60
2019-03-21T21:58:17.160Z,19.90
2019-03-21T22:00:54.148Z,16.13
2019-03-21T22:03:25.075Z,17.13
2019-03-21T22:05:57.238Z,17.03
2019-03-21T22:08:33.661Z,18.47
2019-03-21T22:11:10.515Z,19.27
2019-03-21T22:13:45.690Z,18.57
2019-03-21T22:19:09.735Z,26.33
2019-03-21T22:21:47.078Z,21.67
2019-03-21T22:24:17.892Z,22.73
2019-03-21T22:26:48.474Z,23.77
2019-03-21T22:29:40.044Z,20.47
2019-03-21T22:34:59.603Z,15.77
2019-03-21T22:37:43.235Z,17.63
2019-03-21T22:40:15.414Z,17.13
2019-03-21T22:42:45.859Z,20.33
2019-03-21T22:45:17.027Z,15.50
2019-03-21T22:47:50.311Z,17.37
2019-03-21T22:53:51.058Z,13.77
2019-03-21T22:56:21.844Z,13.50
2019-03-21T22:59:00.077Z,16.93
2019-03-21T23:01:31.855Z,16.80
2019-03-21T23:04:07.608Z,14.73
2019-03-21T23:09:17.636Z,17.10
2019-03-21T23:11:56.649Z,15.00
2019-03-21T23:14:27.358Z,16.50
2019-03-21T23:17:04.669Z,18.20
2019-03-21T23:19:36.190Z,15.63
2019-03-21T23:22:08.419Z,18.53
2019-03-21T23:24:38.942Z,17.43
2019-03-21T23:29:53.857Z,16.60
2019-03-21T23:32:24.655Z,16.83
2019-03-21T23:34:56.479Z,16.53
2019-03-21T23:37:28.706Z,16.03
2019-03-21T23:39:58.727Z,16.60
2019-03-21T23:42:29.819Z,20.80
2019-03-21T23:45:00.537Z,21.37
2019-03-21T23:47:30.872Z,17.13
2019-03-21T23:50:00.865Z,18.63
2019-03-21T23:52:31.210Z,20.13
2019-03-21T23:55:03.148Z,17.20
2019-03-21T23:57:36.244Z,18.73
